Flight Track Log - Related Links

Times and Time Zones

All times are in EDT time to prevent confusion due to time zone crossing. See the SWR638 flight status page for this flight to view local times or setup timezone preferences in your user account.

Time Position Orientation Groundspeed Altitude Reporting Facility
EDT Latitude Longitude Course Direction KTS MPH feet Rate Location/Type
Mon 07:22:32 AM 47.4590 8.5420 276° West 158 182 1,600  Level FlightAware ADS-B
Mon 07:23:02 AM 47.4610 8.5090 275° West 152 175 3,300 2,836 Climbing FlightAware ADS-B
Mon 07:23:27 AM 47.4630 8.4840 277° West 150 173 4,200 1,745 Climbing FlightAware ADS-B
Mon 07:23:57 AM 47.4520 8.4610 235° Southwest 156 180 4,900 1,300 Climbing FlightAware ADS-B
Mon 07:24:27 AM 47.4320 8.4370 219° Southwest 189 217 5,500 1,200 Climbing FlightAware ADS-B
Mon 07:24:42 AM 47.4240 8.4190 237° Southwest 215 247 5,800 1,350 Climbing FlightAware ADS-B
Mon 07:25:07 AM 47.4080 8.3860 234° Southwest 252 290 6,400 1,964 Climbing FlightAware ADS-B
Mon 07:25:37 AM 47.3880 8.3410 237° Southwest 265 305 7,600 2,400 Climbing FlightAware ADS-B
Mon 07:26:02 AM 47.3750 8.3080 240° Southwest 269 310 8,600 2,850 Climbing FlightAware ADS-B
Mon 07:26:17 AM 47.3650 8.2780 244° Southwest 272 313 9,500 2,300 Climbing FlightAware ADS-B
Mon 07:27:02 AM 47.3370 8.1970 243° Southwest 310 357 10,900 1,412 Climbing FlightAware ADS-B
Mon 07:27:42 AM 47.3070 8.1150 242° Southwest 355 409 11,500 943 Climbing FlightAware ADS-B
Mon 07:28:12 AM 47.2890 8.0390 251° West 378 435 12,000 2,229 Climbing FlightAware ADS-B
Mon 07:28:52 AM 47.2950 7.9550 276° West 362 417 14,100 2,188 Climbing FlightAware ADS-B
Mon 07:29:37 AM 47.3050 7.8380 277° West 383 441 15,100 1,624 Climbing FlightAware ADS-B
Mon 07:30:17 AM 47.3130 7.7340 277° West 389 448 16,400 1,768 Climbing FlightAware ADS-B
Mon 07:31:12 AM 47.3160 7.5860 272° West 406 467 17,900 1,500 Climbing FlightAware ADS-B
Mon 07:31:57 AM 47.3160 7.4560 270° West 418 481 18,900 1,412 Climbing FlightAware ADS-B
Mon 07:32:37 AM 47.3110 7.3430 266° West 426 490 19,900 1,500 Climbing FlightAware ADS-B
Mon 07:33:17 AM 47.3040 7.2340 265° West 427 491 20,900 1,412 Climbing FlightAware ADS-B
Mon 07:34:02 AM 47.2960 7.1000 265° West 434 499 21,900 1,341 Climbing FlightAware ADS-B
Mon 07:34:42 AM 47.2890 6.9730 265° West 439 505 22,800 1,341 Climbing FlightAware ADS-B
Mon 07:35:27 AM 47.2810 6.8410 265° West 444 511 23,800 1,553 Climbing FlightAware ADS-B
Mon 07:36:07 AM 47.2730 6.7210 264° West 438 504 25,000 1,800 Climbing FlightAware ADS-B
Mon 07:36:47 AM 47.2660 6.5990 265° West 434 499 26,200 1,341 Climbing FlightAware ADS-B
Mon 07:37:32 AM 47.2570 6.4670 264° West 442 509 26,900 1,114 Climbing FlightAware ADS-B
Mon 07:37:57 AM 47.2610 6.3860 274° West 436 502 27,500 1,457 Climbing FlightAware ADS-B
Mon 07:38:42 AM 47.2910 6.2640 290° West 429 494 28,600 1,412 Climbing FlightAware ADS-B
Mon 07:39:22 AM 47.3190 6.1530 290° West 427 491 29,500 1,341 Climbing FlightAware ADS-B
Mon 07:40:07 AM 47.3510 6.0320 291° West 425 489 30,500 1,059 Climbing FlightAware ADS-B
Mon 07:40:47 AM 47.3790 5.9220 291° West 422 486 31,000 375 Climbing FlightAware ADS-B
Mon 07:41:27 AM 47.4080 5.8130 291° West 421 484 31,000  Level FlightAware ADS-B
Mon 07:42:12 AM 47.4410 5.6840 291° West 424 488 31,000  Level FlightAware ADS-B
Mon 07:42:52 AM 47.4680 5.5800 291° West 425 489 31,000  Level FlightAware ADS-B
Mon 07:43:32 AM 47.5070 5.4880 302° West 427 491 31,000 95 Level FlightAware ADS-B
Mon 07:43:55 AM 47.5424 5.4282 311° West 426 490 31,100  Climbing FlightAware ADS-B
Mon 07:44:03 AM 47.5536 5.4096 312° West 426 490 31,000 -716 Descending FlightAware ADS-B
Mon 07:45:02 AM 47.6240 5.2930 312° West 424 488 30,300 -923 Descending FlightAware ADS-B
Mon 07:45:47 AM 47.6810 5.1980 312° West 424 488 29,400 -1,389 Descending FlightAware ADS-B
Mon 07:46:37 AM 47.7490 5.0850 312° West 434 499 28,100 -1,690 Descending FlightAware ADS-B
Mon 07:46:58 AM 47.7858 5.0232 312° West 436 502 27,400 -1,520 Descending FlightAware ADS-B
Mon 07:47:52 AM 47.8480 4.9180 311° West 439 505 26,200 -1,327 Descending FlightAware ADS-B
Mon 07:48:42 AM 47.9170 4.8030 312° West 431 496 25,100 -1,333 Descending FlightAware ADS-B
Mon 07:49:22 AM 47.9660 4.7200 311° West 428 493 24,200 -1,271 Descending FlightAware ADS-B
Mon 07:50:07 AM 48.0190 4.6290 311° West 424 488 23,300 -1,556 Descending FlightAware ADS-B
Mon 07:50:16 AM 48.0460 4.5838 312° West 424 488 22,800 -1,800 Descending FlightAware ADS-B
Mon 07:50:47 AM 48.0830 4.5210 311° West 418 481 22,100 -1,500 Descending FlightAware ADS-B
Mon 07:51:08 AM 48.1122 4.4705 311° West 421 484 21,500 -1,548 Descending FlightAware ADS-B
Mon 07:51:49 AM 48.1643 4.3814 311° West 411 473 20,500 -1,440 Descending FlightAware ADS-B
Mon 07:52:23 AM 48.2061 4.3095 311° West 408 470 19,700 -1,412 Descending FlightAware ADS-B
Mon 07:52:57 AM 48.2480 4.2373 311° West 401 461 18,900 -1,406 Descending FlightAware ADS-B
Mon 07:53:27 AM 48.2841 4.1747 311° West 395 455 18,200 -1,425 Descending FlightAware ADS-B
Mon 07:54:17 AM 48.3420 4.0740 311° West 392 451 17,000 -1,477 Descending FlightAware ADS-B
Mon 07:54:32 AM 48.3613 4.0409 311° West 389 448 16,600 -1,467 Descending FlightAware ADS-B
Mon 07:55:02 AM 48.3930 3.9860 311° West 383 441 15,900 -1,455 Descending FlightAware ADS-B
Mon 07:55:05 AM 48.3998 3.9740 311° West 383 441 15,800 -1,459 Descending FlightAware ADS-B
Mon 07:55:39 AM 48.4390 3.9057 311° West 376 433 15,000 -1,433 Descending FlightAware ADS-B
Mon 07:56:12 AM 48.4756 3.8417 311° West 373 429 14,200 -1,457 Descending FlightAware ADS-B
Mon 07:56:49 AM 48.5171 3.7688 311° West 362 417 13,300 -1,424 Descending FlightAware ADS-B
Mon 07:57:11 AM 48.5406 3.7255 309° West 360 414 12,800 -1,472 Descending FlightAware ADS-B
Mon 07:57:42 AM 48.5684 3.6618 303° West 357 411 12,000 -1,475 Descending FlightAware ADS-B
Mon 07:58:12 AM 48.5952 3.5993 303° West 351 404 11,300 -1,500 Descending FlightAware ADS-B
Mon 07:58:30 AM 48.6135 3.5638 308° West 347 399 10,800 -1,355 Descending FlightAware ADS-B
Mon 07:58:43 AM 48.6299 3.5465 325° Northwest 342 394 10,600 -588 Descending FlightAware ADS-B
Mon 07:59:21 AM 48.6782 3.5047 330° Northwest 303 349 10,300 -539 Descending FlightAware ADS-B
Mon 08:00:12 AM 48.7365 3.4540 330° Northwest 277 319 9,800 -659 Descending FlightAware ADS-B
Mon 08:00:52 AM 48.7720 3.4230 330° Northwest 265 305 9,300 -720 Descending FlightAware ADS-B
Mon 08:01:02 AM 48.7820 3.4150 332° Northwest 264 304 9,200 -1,200 Descending FlightAware ADS-B
Mon 08:01:17 AM 48.8085 3.3912 329° Northwest 270 311 8,800 -1,105 Descending FlightAware ADS-B
Mon 08:01:40 AM 48.8332 3.3697 330° Northwest 272 313 8,500 -769 Descending FlightAware ADS-B
Mon 08:01:56 AM 48.8507 3.3545 330° Northwest 274 315 8,300 -686 Descending FlightAware ADS-B
Mon 08:02:15 AM 48.8721 3.3360 330° Northwest 273 314 8,100 -514 Descending FlightAware ADS-B
Mon 08:02:31 AM 48.8887 3.3216 330° Northwest 271 312 8,000 -444 Descending FlightAware ADS-B
Mon 08:02:42 AM 48.8994 3.3119 329° Northwest 269 310 7,900 -667 Descending FlightAware ADS-B
Mon 08:02:49 AM 48.9078 3.3018 322° Northwest 264 304 7,800 -571 Descending FlightAware ADS-B
Mon 08:03:03 AM 48.9199 3.2835 315° West 260 299 7,700 -581 Descending FlightAware ADS-B
Mon 08:03:20 AM 48.9340 3.2612 314° West 259 298 7,500 -727 Descending FlightAware ADS-B
Mon 08:03:36 AM 48.9467 3.2414 314° West 258 297 7,300 -783 Descending FlightAware ADS-B
Mon 08:03:43 AM 48.9520 3.2318 310° West 256 295 7,200 -1,000 Descending FlightAware ADS-B
Mon 08:03:54 AM 48.9598 3.2150 305° West 255 293 7,000 -923 Descending FlightAware ADS-B
Mon 08:04:09 AM 48.9696 3.1924 303° West 254 292 6,800 -581 Descending FlightAware ADS-B
Mon 08:04:25 AM 48.9800 3.1683 303° West 250 288 6,700 -529 Descending FlightAware ADS-B
Mon 08:04:43 AM 48.9902 3.1443 303° West 250 288 6,500 -667 Descending FlightAware ADS-B
Mon 08:05:01 AM 49.0023 3.1156 303° West 251 289 6,300 -882 Descending FlightAware ADS-B
Mon 08:05:17 AM 49.0122 3.0915 302° West 247 284 6,000 -750 Descending FlightAware ADS-B
Mon 08:05:33 AM 49.0211 3.0696 302° West 237 273 5,900 -387 Descending FlightAware ADS-B
Mon 08:05:48 AM 49.0298 3.0483 302° West 229 264 5,800 -444 Descending FlightAware ADS-B
Mon 08:06:27 AM 49.0470 2.9950 296° West 219 252 5,500 -484 Descending FlightAware ADS-B
Mon 08:06:50 AM 49.0470 2.9590 270° West 217 250 5,300 -750 Descending FlightAware ADS-B
Mon 08:07:07 AM 49.0459 2.9326 266° West 217 250 5,000 -811 Descending FlightAware ADS-B
Mon 08:07:27 AM 49.0445 2.9028 266° West 208 239 4,800 -811 Descending FlightAware ADS-B
Mon 08:07:44 AM 49.0433 2.8800 265° West 193 222 4,500 -1,125 Descending FlightAware ADS-B
Mon 08:07:59 AM 49.0423 2.8600 266° West 186 214 4,200 -1,235 Descending FlightAware ADS-B
Mon 08:08:18 AM 49.0410 2.8350 265° West 183 211 3,800 -947 Descending FlightAware ADS-B
Mon 08:08:56 AM 49.0387 2.7900 266° West 159 183 3,300 -873 Descending FlightAware ADS-B
Mon 08:09:13 AM 49.0377 2.7707 265° West 155 178 3,000 -882 Descending FlightAware ADS-B
Mon 08:09:30 AM 49.0368 2.7538 265° West 148 170 2,800 -750 Descending FlightAware ADS-B
Mon 08:09:45 AM 49.0360 2.7378 266° West 145 167 2,600 -774 Descending FlightAware ADS-B
Mon 08:10:01 AM 49.0351 2.7218 265° West 144 166 2,400 -828 Descending FlightAware ADS-B
Mon 08:10:14 AM 49.0344 2.7079 266° West 148 170 2,200 -857 Descending FlightAware ADS-B
Mon 08:10:22 AM 49.0340 2.7001 266° West 148 170 2,100 -783 Descending FlightAware ADS-B
Mon 08:10:37 AM 49.0332 2.6839 266° West 144 166 1,900 -774 Descending FlightAware ADS-B
Mon 08:10:53 AM 49.0324 2.6684 266° West 138 159 1,700 -750 Descending FlightAware ADS-B
Mon 08:11:09 AM 49.0316 2.6540 265° West 127 146 1,500 -706 Descending FlightAware ADS-B
Mon 08:11:27 AM 49.0307 2.6381 265° West 125 144 1,300 -563 Descending FlightAware ADS-B
Mon 08:11:41 AM 49.0301 2.6254 266° West 125 144 1,200 -621 Descending FlightAware ADS-B
Mon 08:11:56 AM 49.0294 2.6119 265° West 124 143 1,000 -783 Descending FlightAware ADS-B
Mon 08:12:04 AM 49.0291 2.6064 265° West 126 145 900 -783 Descending FlightAware ADS-B
Mon 08:12:19 AM 49.0283 2.5920 265° West 123 142 700 -774 Descending FlightAware ADS-B
Mon 08:12:35 AM 49.0276 2.5786 265° West 121 139 500 -720 Descending FlightAware ADS-B
Mon 08:12:44 AM 49.0271 2.5702 265° West 122 140 400 -667 Descending FlightAware ADS-B

Login

Don't have an account? Register now (free) for customized features, flight alerts, and more!